createdAt,value
2022-11-30T00:00:56.444Z,5.32
2022-11-30T00:03:23.966Z,5.51
2022-11-30T00:05:50.725Z,5.48
2022-11-30T00:08:17.725Z,5.55
2022-11-30T00:10:44.768Z,5.61
2022-11-30T00:13:11.343Z,5.32
2022-11-30T00:15:38.035Z,5.54
2022-11-30T00:18:05.090Z,5.46
2022-11-30T00:20:31.899Z,5.54
2022-11-30T00:22:58.478Z,5.44
2022-11-30T00:25:25.569Z,5.51
2022-11-30T00:27:52.467Z,5.42
2022-11-30T00:30:19.020Z,5.23
2022-11-30T00:32:45.514Z,5.44
2022-11-30T00:35:12.254Z,5.30
2022-11-30T00:37:38.805Z,5.19
2022-11-30T00:40:06.331Z,5.05
2022-11-30T00:42:32.908Z,5.01
2022-11-30T00:44:59.432Z,5.15
2022-11-30T00:47:25.934Z,4.97
2022-11-30T00:49:52.462Z,5.23
2022-11-30T00:52:19.006Z,5.22
2022-11-30T00:54:46.083Z,4.81
2022-11-30T00:57:13.022Z,4.84
2022-11-30T00:59:39.561Z,4.89
2022-11-30T01:02:06.155Z,4.78
2022-11-30T01:04:32.776Z,5.00
2022-11-30T01:06:59.390Z,4.96
2022-11-30T01:09:26.004Z,5.11
2022-11-30T01:11:52.621Z,5.19
2022-11-30T01:14:19.204Z,5.24
2022-11-30T01:16:45.748Z,5.16
2022-11-30T01:19:12.278Z,5.00
2022-11-30T01:21:38.904Z,4.77
2022-11-30T01:24:05.952Z,5.18
2022-11-30T01:26:32.548Z,4.56
2022-11-30T01:28:59.112Z,4.71
2022-11-30T01:31:25.766Z,4.50
2022-11-30T01:33:55.093Z,4.87
2022-11-30T01:36:26.417Z,5.20
2022-11-30T01:38:55.520Z,5.20
2022-11-30T01:41:31.144Z,5.20
2022-11-30T01:44:20.126Z,5.15
2022-11-30T01:47:04.887Z,5.12
2022-11-30T01:49:36.032Z,5.06
2022-11-30T01:52:10.997Z,4.76
2022-11-30T01:55:07.280Z,4.92
2022-11-30T01:57:40.914Z,4.98
2022-11-30T02:00:09.701Z,4.87
2022-11-30T02:03:11.228Z,4.89
2022-11-30T02:05:40.161Z,4.97
2022-11-30T02:08:08.787Z,5.02
2022-11-30T02:10:38.780Z,5.03
2022-11-30T02:13:23.805Z,5.06
2022-11-30T02:16:16.742Z,5.12
2022-11-30T02:19:12.824Z,5.11
2022-11-30T02:21:53.729Z,5.05
2022-11-30T02:24:44.743Z,5.03
2022-11-30T02:27:31.634Z,4.97
2022-11-30T02:30:11.704Z,4.98
2022-11-30T02:32:48.615Z,4.82
2022-11-30T02:35:20.445Z,4.91
2022-11-30T02:37:48.785Z,4.62
2022-11-30T02:40:20.437Z,5.01
2022-11-30T02:42:50.442Z,4.90
2022-11-30T02:45:20.525Z,4.64
2022-11-30T02:47:55.589Z,4.44
2022-11-30T02:50:28.353Z,5.00
2022-11-30T02:52:55.737Z,4.98
2022-11-30T02:55:22.716Z,4.97
2022-11-30T02:57:49.358Z,5.14
2022-11-30T03:00:16.744Z,5.26
2022-11-30T03:02:43.339Z,5.29
2022-11-30T03:05:10.692Z,5.30
2022-11-30T03:07:37.316Z,5.32
2022-11-30T03:10:05.064Z,4.97
2022-11-30T03:12:31.627Z,5.05
2022-11-30T03:14:58.132Z,5.20
2022-11-30T03:17:24.758Z,5.24
2022-11-30T03:19:51.803Z,5.38
2022-11-30T03:22:18.328Z,5.21
2022-11-30T03:24:45.041Z,5.13
2022-11-30T03:27:12.413Z,5.32
2022-11-30T03:29:39.361Z,4.90
2022-11-30T03:32:06.219Z,5.25
2022-11-30T03:34:32.756Z,5.32
2022-11-30T03:36:59.445Z,5.25
2022-11-30T03:39:26.154Z,5.44
2022-11-30T03:41:52.765Z,5.12
2022-11-30T03:44:19.611Z,5.34
2022-11-30T03:46:46.161Z,5.37
2022-11-30T03:49:12.894Z,4.65
2022-11-30T03:51:39.520Z,5.38
2022-11-30T03:54:06.133Z,5.20
2022-11-30T03:56:32.715Z,5.25
2022-11-30T03:58:59.225Z,5.22
2022-11-30T04:01:26.640Z,5.21
2022-11-30T04:03:53.502Z,4.82
2022-11-30T04:06:21.749Z,4.82
2022-11-30T04:08:48.477Z,5.24
2022-11-30T04:11:15.491Z,4.85
2022-11-30T04:13:42.717Z,5.26
2022-11-30T04:16:09.744Z,5.19
2022-11-30T04:18:37.397Z,5.23
2022-11-30T04:21:05.179Z,5.22
2022-11-30T04:23:34.601Z,5.26
2022-11-30T04:26:04.291Z,5.04
2022-11-30T04:28:31.294Z,5.23
2022-11-30T04:31:00.405Z,5.32
2022-11-30T04:33:28.358Z,5.09
2022-11-30T04:35:56.912Z,4.99
2022-11-30T04:38:24.654Z,4.94
2022-11-30T04:40:51.666Z,5.03
2022-11-30T04:43:19.144Z,5.14
2022-11-30T04:45:46.130Z,5.13
2022-11-30T04:48:13.336Z,5.05
2022-11-30T04:50:39.983Z,4.84
2022-11-30T04:53:07.691Z,4.92
2022-11-30T04:55:34.436Z,4.68
2022-11-30T04:58:01.028Z,5.02
2022-11-30T05:00:27.741Z,4.85
2022-11-30T05:02:56.532Z,4.99
2022-11-30T05:05:23.746Z,4.93
2022-11-30T05:07:58.054Z,5.03
2022-11-30T05:10:25.874Z,5.02
2022-11-30T05:12:52.492Z,4.53
2022-11-30T05:15:19.579Z,5.01
2022-11-30T05:17:46.548Z,4.83
2022-11-30T05:20:14.083Z,4.99
2022-11-30T05:22:40.758Z,4.96
2022-11-30T05:25:08.009Z,4.70
2022-11-30T05:27:35.348Z,4.92
2022-11-30T05:30:02.230Z,4.88
2022-11-30T05:32:28.835Z,4.89
2022-11-30T05:34:55.767Z,4.93
2022-11-30T05:37:22.881Z,4.69
2022-11-30T05:39:49.747Z,4.97
2022-11-30T05:42:16.439Z,4.84
2022-11-30T05:44:43.481Z,4.77
2022-11-30T05:47:10.496Z,4.71
2022-11-30T05:49:37.099Z,4.77
2022-11-30T05:52:03.803Z,4.97
2022-11-30T05:54:30.352Z,5.04
2022-11-30T05:56:57.022Z,4.97
2022-11-30T05:59:23.751Z,4.97
2022-11-30T06:01:53.714Z,5.01
2022-11-30T06:04:21.719Z,5.01
2022-11-30T06:06:49.520Z,5.11
2022-11-30T06:09:16.240Z,5.09
2022-11-30T06:11:42.910Z,4.91
2022-11-30T06:14:09.571Z,5.07
2022-11-30T06:16:39.126Z,4.96
2022-11-30T06:19:06.193Z,5.00
2022-11-30T06:21:32.810Z,4.95
2022-11-30T06:23:59.316Z,4.93
2022-11-30T06:26:26.180Z,5.07
2022-11-30T06:28:52.695Z,4.59
2022-11-30T06:31:19.277Z,5.08
2022-11-30T06:33:45.803Z,5.12
2022-11-30T06:36:12.536Z,5.16
2022-11-30T06:38:39.521Z,5.19
2022-11-30T06:41:08.736Z,5.11
2022-11-30T06:43:36.973Z,5.12
2022-11-30T06:46:05.228Z,5.09
2022-11-30T06:48:32.512Z,5.14
2022-11-30T06:51:00.464Z,5.01
2022-11-30T06:53:27.968Z,5.15
2022-11-30T06:55:55.073Z,5.11
2022-11-30T06:58:22.087Z,5.19
2022-11-30T07:00:49.481Z,5.09
2022-11-30T07:03:19.386Z,5.02
2022-11-30T07:05:52.528Z,5.01
2022-11-30T07:08:19.877Z,5.05
2022-11-30T07:10:50.917Z,5.00
2022-11-30T07:13:19.726Z,4.99
2022-11-30T07:15:48.917Z,4.95
2022-11-30T07:18:16.567Z,4.64
2022-11-30T07:20:43.638Z,4.64
2022-11-30T07:23:28.796Z,4.92
2022-11-30T07:26:10.571Z,4.69
2022-11-30T07:28:43.079Z,4.94
2022-11-30T07:31:16.672Z,4.96
2022-11-30T07:33:43.817Z,4.77
2022-11-30T07:36:11.193Z,4.89
2022-11-30T07:38:38.499Z,5.03
2022-11-30T07:41:05.474Z,4.62
2022-11-30T07:43:33.049Z,4.36
2022-11-30T07:46:00.444Z,4.98
2022-11-30T07:48:27.755Z,4.98
2022-11-30T07:50:54.634Z,5.00
2022-11-30T07:53:21.214Z,4.96
2022-11-30T07:55:50.544Z,4.91
2022-11-30T07:58:19.334Z,5.02
2022-11-30T08:00:45.850Z,4.83
2022-11-30T08:03:12.357Z,4.54
2022-11-30T08:05:38.876Z,4.89
2022-11-30T08:08:05.465Z,4.96
2022-11-30T08:10:32.124Z,5.05
2022-11-30T08:12:59.259Z,4.47
2022-11-30T08:15:32.135Z,4.89
2022-11-30T08:18:05.236Z,4.99
2022-11-30T08:20:31.872Z,5.08
2022-11-30T08:22:58.812Z,5.18
2022-11-30T08:25:25.393Z,5.05
2022-11-30T08:27:51.919Z,5.01
2022-11-30T08:30:18.628Z,5.09
2022-11-30T08:32:45.148Z,5.08
2022-11-30T08:35:11.816Z,5.07
2022-11-30T08:37:38.846Z,4.70
2022-11-30T08:40:06.285Z,4.92
2022-11-30T08:42:32.838Z,5.05
2022-11-30T08:44:59.561Z,5.01
2022-11-30T08:47:26.665Z,4.99
2022-11-30T08:49:53.293Z,4.97
2022-11-30T08:52:19.999Z,5.01
2022-11-30T08:54:48.078Z,4.89
2022-11-30T08:57:17.563Z,5.15
2022-11-30T08:59:44.487Z,5.16
2022-11-30T09:02:13.439Z,5.12
2022-11-30T09:04:40.002Z,5.23
2022-11-30T09:07:06.706Z,4.70
2022-11-30T09:09:33.354Z,4.89
2022-11-30T09:11:59.993Z,4.55
2022-11-30T09:14:26.811Z,5.29
2022-11-30T09:16:54.113Z,4.90
2022-11-30T09:19:21.521Z,5.16
2022-11-30T09:21:51.876Z,5.41
2022-11-30T09:24:19.690Z,5.36
2022-11-30T09:26:46.305Z,5.40
2022-11-30T09:29:12.950Z,5.44
2022-11-30T09:31:39.599Z,5.42
2022-11-30T09:34:06.162Z,5.19
2022-11-30T09:36:34.049Z,5.72
2022-11-30T09:39:01.114Z,5.61
2022-11-30T09:41:55.082Z,5.73
2022-11-30T09:44:27.913Z,5.18
2022-11-30T09:47:17.688Z,5.68
2022-11-30T09:49:46.402Z,5.64
2022-11-30T09:52:37.324Z,5.68
2022-11-30T09:55:08.800Z,5.69
2022-11-30T09:57:46.977Z,5.78
2022-11-30T10:00:21.717Z,5.78
2022-11-30T10:02:53.832Z,5.78
2022-11-30T10:05:28.796Z,5.58
2022-11-30T10:08:07.450Z,5.92
2022-11-30T10:10:41.866Z,5.87
2022-11-30T10:13:52.248Z,5.74
2022-11-30T10:16:39.327Z,5.59
2022-11-30T10:19:08.842Z,5.79
2022-11-30T10:21:41.344Z,5.75
2022-11-30T10:24:40.481Z,5.55
2022-11-30T10:27:40.751Z,5.62
2022-11-30T10:30:17.003Z,5.59
2022-11-30T10:32:47.219Z,5.68
2022-11-30T10:35:37.116Z,5.56
2022-11-30T10:38:13.585Z,5.70
2022-11-30T10:40:52.792Z,5.45
2022-11-30T10:43:34.053Z,5.75
2022-11-30T10:46:00.704Z,5.70
2022-11-30T10:48:51.655Z,5.69
2022-11-30T10:51:18.281Z,5.74
2022-11-30T10:53:47.274Z,5.79
2022-11-30T10:56:15.220Z,5.32
2022-11-30T10:59:04.737Z,5.40
2022-11-30T11:01:41.124Z,5.50
2022-11-30T11:04:17.200Z,5.04
2022-11-30T11:06:43.894Z,5.72
2022-11-30T11:09:29.772Z,5.61
2022-11-30T11:12:02.700Z,5.77
2022-11-30T11:14:34.871Z,5.82
2022-11-30T11:17:17.678Z,5.86
2022-11-30T11:19:46.280Z,5.86
2022-11-30T11:22:13.018Z,5.84
2022-11-30T11:24:39.708Z,5.51
2022-11-30T11:27:06.455Z,5.65
2022-11-30T11:29:34.956Z,5.65
2022-11-30T11:32:31.605Z,5.68
2022-11-30T11:34:58.372Z,5.38
2022-11-30T11:37:33.996Z,5.74
2022-11-30T11:40:00.761Z,5.80
2022-11-30T11:42:31.375Z,5.77
2022-11-30T11:45:00.042Z,5.69
2022-11-30T11:47:41.064Z,5.64
2022-11-30T11:50:57.766Z,5.54
2022-11-30T11:53:24.950Z,5.77
2022-11-30T11:55:56.291Z,5.70
2022-11-30T11:58:39.647Z,5.39
2022-11-30T12:01:38.785Z,5.74
2022-11-30T12:04:17.985Z,5.75
2022-11-30T12:06:46.592Z,5.68
2022-11-30T12:09:18.187Z,5.48
2022-11-30T12:11:47.609Z,5.67
2022-11-30T12:14:16.866Z,5.59
2022-11-30T12:17:11.563Z,5.56
2022-11-30T12:20:14.406Z,5.76
2022-11-30T12:23:03.183Z,5.75
2022-11-30T12:25:50.142Z,5.54
2022-11-30T12:28:52.365Z,5.53
2022-11-30T12:31:19.048Z,5.65
2022-11-30T12:33:48.889Z,5.49
2022-11-30T12:36:15.500Z,5.35
2022-11-30T12:38:56.261Z,5.50
2022-11-30T12:41:37.477Z,5.62
2022-11-30T12:44:22.588Z,5.37
2022-11-30T12:47:00.585Z,5.62
2022-11-30T12:49:51.056Z,5.62
2022-11-30T12:52:53.379Z,5.59
2022-11-30T12:55:38.271Z,5.60
2022-11-30T12:58:25.642Z,5.56
2022-11-30T13:01:12.256Z,5.14
2022-11-30T13:03:55.643Z,5.65
2022-11-30T13:06:30.106Z,5.65
2022-11-30T13:09:10.399Z,5.57
2022-11-30T13:11:40.182Z,5.49
2022-11-30T13:14:14.704Z,4.80
2022-11-30T13:16:43.344Z,5.49
2022-11-30T13:19:42.855Z,5.53
2022-11-30T13:22:17.424Z,5.66
2022-11-30T13:24:49.903Z,5.69
2022-11-30T13:27:22.996Z,5.68
2022-11-30T13:30:13.875Z,5.67
2022-11-30T13:35:29.958Z,5.66
2022-11-30T13:38:35.812Z,5.66
2022-11-30T13:41:03.299Z,5.63
2022-11-30T13:43:34.520Z,5.64
2022-11-30T13:46:15.359Z,5.53
2022-11-30T13:48:44.167Z,5.57
2022-11-30T13:51:11.645Z,5.55
2022-11-30T13:53:39.516Z,5.52
2022-11-30T13:56:21.244Z,5.33
2022-11-30T13:59:25.543Z,5.44
2022-11-30T14:02:13.079Z,5.28
2022-11-30T14:04:47.747Z,5.41
2022-11-30T14:07:37.754Z,5.41
2022-11-30T14:10:31.456Z,5.42
2022-11-30T14:13:01.205Z,5.42
2022-11-30T14:15:50.884Z,5.39
2022-11-30T14:18:20.950Z,5.37
2022-11-30T14:21:25.215Z,5.28
2022-11-30T14:24:14.113Z,5.23
2022-11-30T14:26:44.728Z,5.10
2022-11-30T14:29:27.633Z,5.13
2022-11-30T14:32:02.099Z,5.09
2022-11-30T14:34:32.215Z,5.24
2022-11-30T14:37:06.044Z,5.26
2022-11-30T14:39:37.043Z,5.27
2022-11-30T14:42:05.420Z,5.28
2022-11-30T14:44:40.959Z,5.25
2022-11-30T14:47:20.382Z,5.24
2022-11-30T14:49:51.864Z,5.24
2022-11-30T14:52:40.198Z,5.08
2022-11-30T14:55:36.022Z,5.28
2022-11-30T14:58:11.819Z,5.31
2022-11-30T15:00:41.128Z,5.29
2022-11-30T15:03:20.037Z,5.26
2022-11-30T15:05:49.806Z,5.15
2022-11-30T15:08:17.238Z,5.24
2022-11-30T15:10:44.086Z,5.27
2022-11-30T15:13:17.503Z,5.29
2022-11-30T15:15:55.694Z,5.24
2022-11-30T15:18:24.571Z,5.21
2022-11-30T15:21:11.552Z,4.90
2022-11-30T15:23:38.538Z,4.97
2022-11-30T15:26:14.221Z,5.13
2022-11-30T15:28:44.927Z,4.96
2022-11-30T15:31:15.437Z,4.78
2022-11-30T15:33:46.043Z,4.83
2022-11-30T15:36:27.790Z,5.15
2022-11-30T15:39:05.368Z,4.74
2022-11-30T15:41:33.932Z,5.08
2022-11-30T15:44:02.321Z,5.09
2022-11-30T15:46:35.125Z,5.04
2022-11-30T15:49:17.104Z,5.06
2022-11-30T15:51:52.022Z,5.04
2022-11-30T15:54:46.599Z,5.10
2022-11-30T15:57:14.332Z,5.10
2022-11-30T15:59:41.924Z,4.74
2022-11-30T16:02:32.845Z,5.02
2022-11-30T16:05:19.730Z,4.98
2022-11-30T16:08:00.497Z,5.20
2022-11-30T16:10:36.805Z,5.15
2022-11-30T16:13:04.881Z,5.13
2022-11-30T16:15:36.579Z,5.14
2022-11-30T16:18:21.954Z,4.83
2022-11-30T16:20:51.493Z,4.97
2022-11-30T16:23:19.512Z,4.68
2022-11-30T16:25:47.367Z,5.11
2022-11-30T16:28:16.169Z,5.14
2022-11-30T16:30:43.707Z,5.15
2022-11-30T16:33:15.380Z,5.15
2022-11-30T16:36:09.486Z,4.89
2022-11-30T16:38:37.505Z,5.12
2022-11-30T16:41:13.826Z,4.93
2022-11-30T16:43:42.350Z,5.04
2022-11-30T16:46:28.279Z,4.83
2022-11-30T16:48:55.652Z,4.97
2022-11-30T16:51:35.281Z,4.96
2022-11-30T16:54:03.878Z,5.02
2022-11-30T16:56:31.712Z,5.00
2022-11-30T16:58:58.877Z,4.70
2022-11-30T17:01:36.033Z,4.92
2022-11-30T17:04:19.287Z,4.95
2022-11-30T17:06:50.599Z,4.78
2022-11-30T17:09:19.451Z,4.90
2022-11-30T17:11:50.503Z,4.81
2022-11-30T17:14:18.025Z,4.50
2022-11-30T17:16:44.980Z,4.71
2022-11-30T17:19:12.939Z,4.78
2022-11-30T17:21:42.651Z,4.29
2022-11-30T17:24:09.615Z,4.83
2022-11-30T17:26:36.503Z,4.89
2022-11-30T17:29:04.189Z,4.88
2022-11-30T17:31:31.390Z,4.71
2022-11-30T17:33:58.819Z,4.86
2022-11-30T17:36:26.977Z,4.89
2022-11-30T17:38:54.526Z,4.92
2022-11-30T17:41:22.525Z,4.90
2022-11-30T17:43:49.733Z,4.89
2022-11-30T17:46:19.294Z,4.88
2022-11-30T17:48:46.610Z,4.65
2022-11-30T17:51:14.104Z,4.69
2022-11-30T17:53:42.959Z,4.71
2022-11-30T17:56:16.196Z,4.58
2022-11-30T17:58:45.342Z,4.70
2022-11-30T18:01:16.183Z,4.53
2022-11-30T18:03:44.496Z,4.59
2022-11-30T18:06:12.146Z,4.70
2022-11-30T18:08:40.105Z,4.69
2022-11-30T18:11:14.273Z,4.71
2022-11-30T18:13:41.312Z,4.34
2022-11-30T18:16:10.544Z,4.71
2022-11-30T18:18:40.525Z,4.67
2022-11-30T18:21:11.580Z,4.66
2022-11-30T18:23:39.207Z,4.63
2022-11-30T18:26:10.332Z,4.59
2022-11-30T18:28:37.534Z,4.55
2022-11-30T18:31:06.518Z,4.66
2022-11-30T18:33:34.481Z,4.68
2022-11-30T18:36:02.232Z,4.69
2022-11-30T18:38:34.218Z,4.65
2022-11-30T18:41:04.304Z,4.67
2022-11-30T18:43:31.917Z,4.67
2022-11-30T18:46:09.315Z,4.62
2022-11-30T18:48:37.715Z,4.59
2022-11-30T18:51:23.522Z,4.64
2022-11-30T18:53:57.984Z,4.64
2022-11-30T18:56:26.640Z,4.63
2022-11-30T18:59:02.677Z,4.23
2022-11-30T19:01:31.825Z,4.63
2022-11-30T19:04:10.643Z,4.63
2022-11-30T19:06:39.807Z,4.59
2022-11-30T19:09:09.417Z,4.67
2022-11-30T19:11:37.448Z,4.63
2022-11-30T19:14:04.832Z,4.63
2022-11-30T19:16:34.352Z,4.69
2022-11-30T19:19:03.413Z,4.72
2022-11-30T19:21:29.974Z,4.72
2022-11-30T19:23:57.200Z,4.66
2022-11-30T19:26:23.819Z,4.68
2022-11-30T19:28:53.532Z,4.69
2022-11-30T19:31:20.744Z,4.55
2022-11-30T19:33:49.800Z,4.74
2022-11-30T19:36:19.264Z,4.57
2022-11-30T19:38:47.988Z,4.72
2022-11-30T19:41:16.625Z,4.70
2022-11-30T19:43:49.416Z,4.59
2022-11-30T19:46:20.146Z,4.73
2022-11-30T19:48:53.097Z,4.88
2022-11-30T19:51:20.297Z,4.81
2022-11-30T19:53:47.265Z,4.78
2022-11-30T19:56:18.091Z,4.64
2022-11-30T19:58:47.360Z,4.62
2022-11-30T20:01:15.687Z,4.59
2022-11-30T20:03:46.513Z,4.57
2022-11-30T20:06:14.784Z,4.50
2022-11-30T20:08:42.953Z,4.53
2022-11-30T20:11:13.006Z,4.34
2022-11-30T20:13:43.265Z,4.47
2022-11-30T20:16:15.742Z,4.34
2022-11-30T20:18:46.222Z,4.47
2022-11-30T20:21:18.422Z,4.39
2022-11-30T20:23:47.082Z,4.44
2022-11-30T20:26:18.112Z,4.58
2022-11-30T20:28:46.413Z,4.45
2022-11-30T20:31:14.814Z,4.62
2022-11-30T20:33:41.622Z,4.10
2022-11-30T20:36:09.514Z,4.60
2022-11-30T20:38:36.998Z,4.72
2022-11-30T20:41:04.158Z,4.66
2022-11-30T20:43:30.856Z,4.76
2022-11-30T20:45:57.572Z,4.70
2022-11-30T20:48:24.181Z,4.52
2022-11-30T20:51:07.587Z,4.49
2022-11-30T20:53:38.771Z,4.57
2022-11-30T20:56:06.198Z,4.64
2022-11-30T20:58:32.960Z,4.58
2022-11-30T21:01:00.776Z,4.59
2022-11-30T21:03:27.977Z,4.57
2022-11-30T21:05:54.836Z,4.23
2022-11-30T21:08:21.597Z,4.47
2022-11-30T21:10:48.520Z,4.28
2022-11-30T21:13:15.349Z,4.34
2022-11-30T21:15:41.928Z,4.20
2022-11-30T21:18:08.552Z,4.20
2022-11-30T21:20:36.390Z,4.52
2022-11-30T21:23:05.163Z,4.46
2022-11-30T21:25:33.421Z,4.43
2022-11-30T21:28:00.341Z,4.44
2022-11-30T21:30:28.424Z,4.43
2022-11-30T21:32:55.081Z,4.35
2022-11-30T21:35:21.836Z,4.20
2022-11-30T21:37:48.371Z,4.32
2022-11-30T21:40:16.313Z,4.14
2022-11-30T21:42:43.971Z,4.19
2022-11-30T21:45:11.235Z,4.09
2022-11-30T21:47:40.652Z,4.34
2022-11-30T21:50:08.545Z,4.15
2022-11-30T21:52:36.252Z,4.37
2022-11-30T21:55:02.955Z,4.25
2022-11-30T21:57:29.686Z,4.35
2022-11-30T21:59:57.817Z,4.04
2022-11-30T22:02:25.509Z,4.32
2022-11-30T22:04:54.404Z,4.37
2022-11-30T22:07:32.030Z,4.36
2022-11-30T22:09:59.740Z,4.35
2022-11-30T22:12:26.705Z,4.19
2022-11-30T22:14:54.352Z,3.92
2022-11-30T22:17:22.246Z,4.23
2022-11-30T22:19:52.357Z,4.16
2022-11-30T22:22:20.457Z,4.14
2022-11-30T22:24:47.025Z,4.06
2022-11-30T22:27:13.516Z,4.09
2022-11-30T22:29:40.092Z,3.99
2022-11-30T22:32:06.624Z,4.12
2022-11-30T22:34:33.245Z,4.02
2022-11-30T22:36:59.969Z,3.99
2022-11-30T22:39:26.511Z,3.93
2022-11-30T22:41:56.062Z,4.13
2022-11-30T22:44:23.768Z,4.07
2022-11-30T22:46:50.390Z,4.06
2022-11-30T22:49:21.277Z,4.10
2022-11-30T22:51:49.330Z,4.11
2022-11-30T22:54:15.893Z,3.90
2022-11-30T22:56:42.485Z,3.94
2022-11-30T22:59:15.207Z,3.94
2022-11-30T23:01:45.871Z,3.99
2022-11-30T23:04:16.748Z,3.98
2022-11-30T23:06:46.733Z,4.07
2022-11-30T23:09:20.328Z,3.98
2022-11-30T23:11:50.419Z,3.84
2022-11-30T23:14:19.342Z,3.78
2022-11-30T23:16:49.183Z,3.85
2022-11-30T23:19:16.625Z,3.91
2022-11-30T23:21:47.763Z,3.94
2022-11-30T23:24:17.533Z,3.91
2022-11-30T23:26:44.567Z,3.92
2022-11-30T23:29:14.344Z,3.90
2022-11-30T23:31:45.886Z,3.86
2022-11-30T23:34:20.424Z,3.47
2022-11-30T23:36:47.568Z,3.88
2022-11-30T23:39:16.815Z,3.68
2022-11-30T23:41:45.197Z,3.92
2022-11-30T23:44:12.958Z,3.64
2022-11-30T23:46:40.405Z,3.81
2022-11-30T23:49:08.425Z,3.81
2022-11-30T23:51:35.873Z,3.41
2022-11-30T23:54:04.192Z,3.82
2022-11-30T23:56:32.544Z,3.82
2022-11-30T23:59:01.288Z,3.84
